createdAt,value
2023-03-03T00:00:15.050Z,73121.34
2023-03-03T00:00:50.505Z,73117.38
2023-03-03T00:01:25.543Z,73121.34
2023-03-03T00:01:57.841Z,73121.34
2023-03-03T00:02:32.766Z,73117.38
2023-03-03T00:03:09.487Z,73121.34
2023-03-03T00:03:44.422Z,73117.38
2023-03-03T00:04:16.776Z,73121.34
2023-03-03T00:04:49.024Z,73125.34
2023-03-03T00:05:23.882Z,73121.34
2023-03-03T00:05:56.148Z,73119.34
2023-03-03T00:06:31.102Z,73119.34
2023-03-03T00:07:03.351Z,73125.34
2023-03-03T00:07:35.616Z,73121.34
2023-03-03T00:08:10.578Z,73121.34
2023-03-03T00:08:43.103Z,73117.38
2023-03-03T00:09:15.406Z,73125.34
2023-03-03T00:09:50.357Z,73123.34
2023-03-03T00:10:22.590Z,73121.34
2023-03-03T00:10:57.411Z,73121.34
2023-03-03T00:11:29.655Z,73125.34
2023-03-03T00:12:03.711Z,73121.34
2023-03-03T00:12:38.931Z,73117.38
2023-03-03T00:13:16.396Z,73117.38
2023-03-03T00:13:53.425Z,73125.34
2023-03-03T00:14:29.601Z,73125.34
2023-03-03T00:15:01.891Z,73129.34
2023-03-03T00:15:34.147Z,73129.34
2023-03-03T00:16:18.855Z,73125.34
2023-03-03T00:16:51.191Z,73125.34
2023-03-03T00:17:26.580Z,73121.34
2023-03-03T00:18:03.534Z,73117.38
2023-03-03T00:18:41.937Z,73125.34
2023-03-03T00:19:18.396Z,73129.34
2023-03-03T00:19:50.813Z,73121.34
2023-03-03T00:20:36.632Z,73121.34
2023-03-03T00:21:30.178Z,73123.34
2023-03-03T00:22:02.533Z,73121.34
2023-03-03T00:22:36.852Z,73117.38
2023-03-03T00:23:23.101Z,73123.34
2023-03-03T00:24:02.183Z,73119.34
2023-03-03T00:24:40.271Z,73121.34
2023-03-03T00:25:29.113Z,73129.34
2023-03-03T00:26:01.652Z,73125.34
2023-03-03T00:26:39.305Z,73125.34
2023-03-03T00:27:19.172Z,73133.34
2023-03-03T00:27:51.506Z,73129.34
2023-03-03T00:28:29.129Z,73133.34
2023-03-03T00:29:02.140Z,73129.34
2023-03-03T00:29:36.107Z,73129.34
2023-03-03T00:30:20.639Z,73131.34
2023-03-03T00:30:54.081Z,73133.34
2023-03-03T00:31:34.567Z,73133.34
2023-03-03T00:32:26.749Z,73135.31
2023-03-03T00:32:59.182Z,73141.31
2023-03-03T00:33:33.206Z,73139.31
2023-03-03T00:34:23.999Z,73137.31
2023-03-03T00:34:57.244Z,73137.31
2023-03-03T00:35:35.843Z,73141.31
2023-03-03T00:36:23.236Z,73135.31
2023-03-03T00:36:57.420Z,73137.31
2023-03-03T00:37:34.726Z,73145.31
2023-03-03T00:38:13.494Z,73149.31
2023-03-03T00:38:46.855Z,73149.31
2023-03-03T00:39:30.567Z,73143.31
2023-03-03T00:40:16.185Z,73149.31
2023-03-03T00:40:48.927Z,73149.31
2023-03-03T00:41:27.552Z,73149.31
2023-03-03T00:42:00.781Z,73149.31
2023-03-03T00:42:34.629Z,73145.31
2023-03-03T00:43:22.827Z,73149.31
2023-03-03T00:43:55.292Z,73157.28
2023-03-03T00:44:41.446Z,73149.31
2023-03-03T00:45:29.969Z,73157.28
2023-03-03T00:46:02.618Z,73157.28
2023-03-03T00:46:37.768Z,73165.28
2023-03-03T00:47:31.391Z,73157.28
2023-03-03T00:48:20.178Z,73157.28
2023-03-03T00:48:55.082Z,73161.28
2023-03-03T00:49:29.937Z,73157.28
2023-03-03T00:50:32.919Z,73161.28
2023-03-03T00:51:20.174Z,73155.28
2023-03-03T00:51:53.005Z,73155.28
2023-03-03T00:52:28.157Z,73155.28
2023-03-03T00:53:10.588Z,73159.28
2023-03-03T00:53:42.848Z,73157.28
2023-03-03T00:54:15.178Z,73161.28
2023-03-03T00:54:47.608Z,73161.28
2023-03-03T00:55:22.509Z,73153.28
2023-03-03T00:55:54.863Z,73157.28
2023-03-03T00:56:30.781Z,73167.25
2023-03-03T00:57:03.057Z,73165.28
2023-03-03T00:57:35.460Z,73161.28
2023-03-03T00:58:08.912Z,73165.28
2023-03-03T00:58:49.171Z,73167.25
2023-03-03T00:59:23.861Z,73167.25
2023-03-03T00:59:56.175Z,73161.28
2023-03-03T01:00:28.577Z,73169.25
2023-03-03T01:01:03.438Z,73167.25
2023-03-03T01:01:45.380Z,73169.25
2023-03-03T01:02:18.301Z,73173.25
2023-03-03T01:02:50.617Z,73173.25
2023-03-03T01:03:26.852Z,73173.25
2023-03-03T01:03:59.718Z,73169.25
2023-03-03T01:04:34.625Z,73167.25
2023-03-03T01:05:07.571Z,73165.28
2023-03-03T01:05:42.436Z,73169.25
2023-03-03T01:06:15.472Z,73165.28
2023-03-03T01:06:49.753Z,73169.25
2023-03-03T01:07:22.005Z,73169.25
2023-03-03T01:07:56.838Z,73165.28
2023-03-03T01:08:29.180Z,73177.25
2023-03-03T01:09:01.456Z,73167.25
2023-03-03T01:09:36.301Z,73169.25
2023-03-03T01:10:09.927Z,73169.25
2023-03-03T01:10:44.152Z,73165.28
2023-03-03T01:11:21.056Z,73167.25
2023-03-03T01:11:53.780Z,73157.28
2023-03-03T01:12:27.090Z,73165.28
2023-03-03T01:12:59.483Z,73159.28
2023-03-03T01:13:37.900Z,73165.28
2023-03-03T01:14:10.496Z,73171.25
2023-03-03T01:14:43.163Z,73165.28
2023-03-03T01:15:18.517Z,73161.28
2023-03-03T01:15:51.012Z,73167.25
2023-03-03T01:16:23.472Z,73173.25
2023-03-03T01:16:58.825Z,73165.28
2023-03-03T01:17:31.065Z,73165.28
2023-03-03T01:18:03.410Z,73169.25
2023-03-03T01:18:36.264Z,73163.28
2023-03-03T01:19:11.837Z,73165.28
2023-03-03T01:19:46.683Z,73169.25
2023-03-03T01:20:19.040Z,73165.28
2023-03-03T01:20:54.928Z,73165.28
2023-03-03T01:21:27.422Z,73173.25
2023-03-03T01:21:59.714Z,73161.28
2023-03-03T01:22:31.985Z,73161.28
2023-03-03T01:23:07.091Z,73173.25
2023-03-03T01:23:39.376Z,73169.25
2023-03-03T01:24:11.648Z,73161.28
2023-03-03T01:24:46.515Z,73163.28
2023-03-03T01:25:18.831Z,73169.25
2023-03-03T01:25:51.067Z,73165.28
2023-03-03T01:26:25.983Z,73163.28
2023-03-03T01:26:58.258Z,73169.25
2023-03-03T01:27:30.672Z,73169.25
2023-03-03T01:28:05.686Z,73165.28
2023-03-03T01:28:38.003Z,73171.25
2023-03-03T01:29:10.284Z,73169.25
2023-03-03T01:29:42.531Z,73169.25
2023-03-03T01:30:18.621Z,73161.28
2023-03-03T01:30:51.136Z,73169.25
2023-03-03T01:31:23.474Z,73167.25
2023-03-03T01:31:55.858Z,73169.25
2023-03-03T01:32:31.296Z,73173.25
2023-03-03T01:33:03.940Z,73167.25
2023-03-03T01:33:36.770Z,73171.25
2023-03-03T01:34:11.748Z,73173.25
2023-03-03T01:34:46.616Z,73165.28
2023-03-03T01:35:19.253Z,73165.28
2023-03-03T01:35:54.199Z,73169.25
2023-03-03T01:36:28.199Z,73173.25
2023-03-03T01:37:01.183Z,73171.25
2023-03-03T01:37:37.471Z,73173.25
2023-03-03T01:38:09.708Z,73173.25
2023-03-03T01:38:41.970Z,73169.25
2023-03-03T01:39:16.852Z,73169.25
2023-03-03T01:39:50.448Z,73165.28
2023-03-03T01:40:23.896Z,73173.25
2023-03-03T01:41:00.249Z,73175.25
2023-03-03T01:41:33.672Z,73173.25
2023-03-03T01:42:06.285Z,73165.28
2023-03-03T01:42:38.718Z,73167.25
2023-03-03T01:43:16.132Z,73173.25
2023-03-03T01:43:50.347Z,73169.25
2023-03-03T01:44:22.660Z,73165.28
2023-03-03T01:45:15.665Z,73165.28
2023-03-03T01:46:18.084Z,73173.25
2023-03-03T01:46:57.620Z,73175.25
2023-03-03T01:47:32.636Z,73169.25
2023-03-03T01:48:07.465Z,73161.28
2023-03-03T01:48:40.965Z,73171.25
2023-03-03T01:49:18.852Z,73165.28
2023-03-03T01:49:57.082Z,73165.28
2023-03-03T01:50:36.162Z,73163.28
2023-03-03T01:51:18.714Z,73171.25
2023-03-03T01:51:53.456Z,73165.28
2023-03-03T01:52:31.715Z,73163.28
2023-03-03T01:53:05.551Z,73173.25
2023-03-03T01:53:42.116Z,73165.28
2023-03-03T01:54:20.835Z,73165.28
2023-03-03T01:54:56.083Z,73173.25
2023-03-03T01:55:31.376Z,73163.28
2023-03-03T01:56:08.119Z,73165.28
2023-03-03T01:56:42.136Z,73165.28
2023-03-03T01:57:18.605Z,73161.28
2023-03-03T01:57:58.032Z,73165.28
2023-03-03T01:58:32.594Z,73159.28
2023-03-03T01:59:06.697Z,73165.28
2023-03-03T01:59:45.536Z,73165.28
2023-03-03T02:00:18.387Z,73161.28
2023-03-03T02:00:56.955Z,73157.28
2023-03-03T02:01:30.068Z,73165.28
2023-03-03T02:02:04.246Z,73161.28
2023-03-03T02:02:39.469Z,73159.28
2023-03-03T02:03:11.998Z,73165.28
2023-03-03T02:03:44.395Z,73165.28
2023-03-03T02:04:22.003Z,73165.28
2023-03-03T02:04:56.881Z,73169.25
2023-03-03T02:05:29.633Z,73163.28
2023-03-03T02:06:07.820Z,73169.25
2023-03-03T02:06:44.869Z,73167.25
2023-03-03T02:07:18.236Z,73165.28
2023-03-03T02:07:54.523Z,73161.28
2023-03-03T02:08:30.982Z,73165.28
2023-03-03T02:09:09.932Z,73173.25
2023-03-03T02:09:52.597Z,73169.25
2023-03-03T02:10:25.153Z,73165.28
2023-03-03T02:10:59.190Z,73169.25
2023-03-03T02:11:36.069Z,73169.25
2023-03-03T02:12:09.792Z,73169.25
2023-03-03T02:12:44.216Z,73161.28
2023-03-03T02:13:19.101Z,73173.25
2023-03-03T02:13:51.683Z,73165.28
2023-03-03T02:14:25.414Z,73165.28
2023-03-03T02:15:00.244Z,73173.25
2023-03-03T02:15:36.006Z,73173.25
2023-03-03T02:16:09.089Z,73173.25
2023-03-03T02:16:44.568Z,73175.25
2023-03-03T02:17:16.994Z,73165.28
2023-03-03T02:17:50.544Z,73167.25
2023-03-03T02:18:25.906Z,73165.28
2023-03-03T02:18:58.212Z,73173.25
2023-03-03T02:19:35.623Z,73175.25
2023-03-03T02:20:17.818Z,73165.28
2023-03-03T02:20:54.960Z,73177.25
2023-03-03T02:21:27.881Z,73173.25
2023-03-03T02:22:02.304Z,73173.25
2023-03-03T02:22:44.355Z,73177.25
2023-03-03T02:23:23.281Z,73173.25
2023-03-03T02:24:03.151Z,73173.25
2023-03-03T02:24:42.771Z,73169.25
2023-03-03T02:25:20.491Z,73173.25
2023-03-03T02:26:08.392Z,73175.25
2023-03-03T02:26:42.139Z,73173.25
2023-03-03T02:27:16.112Z,73177.25
2023-03-03T02:27:52.544Z,73177.25
2023-03-03T02:28:26.831Z,73173.25
2023-03-03T02:28:59.227Z,73173.25
2023-03-03T02:29:35.052Z,73171.25
2023-03-03T02:30:12.303Z,73173.25
2023-03-03T02:30:44.631Z,73177.25
2023-03-03T02:31:22.586Z,73173.25
2023-03-03T02:31:55.093Z,73181.25
2023-03-03T02:32:27.802Z,73173.25
2023-03-03T02:33:02.756Z,73173.25
2023-03-03T02:33:35.028Z,73169.25
2023-03-03T02:34:08.296Z,73177.25
2023-03-03T02:34:50.571Z,73165.28
2023-03-03T02:35:29.247Z,73169.25
2023-03-03T02:36:01.634Z,73169.25
2023-03-03T02:36:38.595Z,73169.25
2023-03-03T02:37:10.845Z,73169.25
2023-03-03T02:37:43.381Z,73173.25
2023-03-03T02:38:21.162Z,73173.25
2023-03-03T02:39:00.740Z,73169.25
2023-03-03T02:39:32.978Z,73167.25
2023-03-03T02:40:07.276Z,73161.28
2023-03-03T02:40:44.545Z,73159.28
2023-03-03T02:41:30.325Z,73163.28
2023-03-03T02:42:08.086Z,73165.28
2023-03-03T02:42:46.241Z,73161.28
2023-03-03T02:43:22.724Z,73165.28
2023-03-03T02:43:58.991Z,73165.28
2023-03-03T02:44:35.398Z,73161.28
2023-03-03T02:45:08.985Z,73161.28
2023-03-03T02:45:43.710Z,73161.28
2023-03-03T02:46:19.587Z,73167.25
2023-03-03T02:46:53.029Z,73173.25
2023-03-03T02:47:25.647Z,73161.28
2023-03-03T02:48:00.752Z,73161.28
2023-03-03T02:48:32.997Z,73161.28
2023-03-03T02:49:06.238Z,73165.28
2023-03-03T02:49:43.046Z,73169.25
2023-03-03T02:50:15.553Z,73161.28
2023-03-03T02:50:47.834Z,73161.28
2023-03-03T02:51:20.272Z,73165.28
2023-03-03T02:51:56.076Z,73167.25
2023-03-03T02:52:30.657Z,73167.25
2023-03-03T02:53:02.929Z,73163.28
2023-03-03T02:53:38.296Z,73159.28
2023-03-03T02:54:12.168Z,73165.28
2023-03-03T02:54:47.597Z,73161.28
2023-03-03T02:55:19.990Z,73157.28
2023-03-03T02:55:52.309Z,73161.28
2023-03-03T02:56:30.344Z,73159.28
2023-03-03T02:57:02.770Z,73157.28
2023-03-03T02:57:35.098Z,73157.28
2023-03-03T02:58:09.977Z,73157.28
2023-03-03T02:58:42.353Z,73159.28
2023-03-03T02:59:15.252Z,73165.28
2023-03-03T02:59:54.244Z,73159.28
2023-03-03T03:00:26.596Z,73163.28
2023-03-03T03:00:58.949Z,73157.28
2023-03-03T03:01:37.250Z,73161.28
2023-03-03T03:02:12.582Z,73165.28
2023-03-03T03:02:44.828Z,73153.28
2023-03-03T03:03:18.060Z,73153.28
2023-03-03T03:03:53.477Z,73153.28
2023-03-03T03:04:28.645Z,73155.28
2023-03-03T03:05:01.230Z,73153.28
2023-03-03T03:05:36.123Z,73155.28
2023-03-03T03:06:08.989Z,73161.28
2023-03-03T03:06:41.752Z,73153.28
2023-03-03T03:07:14.087Z,73157.28
2023-03-03T03:07:49.675Z,73161.28
2023-03-03T03:08:22.292Z,73161.28
2023-03-03T03:08:55.613Z,73163.28
2023-03-03T03:09:30.900Z,73159.28
2023-03-03T03:10:05.372Z,73169.25
2023-03-03T03:10:40.848Z,73161.28
2023-03-03T03:11:15.810Z,73161.28
2023-03-03T03:11:50.993Z,73165.28
2023-03-03T03:12:26.240Z,73159.28
2023-03-03T03:13:03.057Z,73167.25
2023-03-03T03:13:35.663Z,73167.25
2023-03-03T03:14:09.910Z,73163.28
2023-03-03T03:14:44.850Z,73163.28
2023-03-03T03:15:17.336Z,73165.28
2023-03-03T03:15:49.597Z,73161.28
2023-03-03T03:16:24.548Z,73157.28
2023-03-03T03:16:56.992Z,73161.28
2023-03-03T03:17:29.254Z,73163.28
2023-03-03T03:18:04.118Z,73161.28
2023-03-03T03:18:37.208Z,73167.25
2023-03-03T03:19:09.521Z,73165.28
2023-03-03T03:19:45.456Z,73171.25
2023-03-03T03:20:18.327Z,73169.25
2023-03-03T03:20:51.218Z,73167.25
2023-03-03T03:21:26.204Z,73165.28
2023-03-03T03:21:58.617Z,73173.25
2023-03-03T03:22:30.906Z,73171.25
2023-03-03T03:23:03.148Z,73169.25
2023-03-03T03:23:38.687Z,73165.28
2023-03-03T03:24:11.227Z,73169.25
2023-03-03T03:24:47.393Z,73173.25
2023-03-03T03:25:23.725Z,73175.25
2023-03-03T03:25:55.990Z,73175.25
2023-03-03T03:26:32.387Z,73173.25
2023-03-03T03:27:10.308Z,73171.25
2023-03-03T03:27:42.604Z,73173.25
2023-03-03T03:28:16.293Z,73175.25
2023-03-03T03:28:51.578Z,73173.25
2023-03-03T03:29:24.096Z,73167.25
2023-03-03T03:29:56.396Z,73173.25
2023-03-03T03:30:31.639Z,73169.25
2023-03-03T03:31:05.173Z,73169.25
2023-03-03T03:31:39.374Z,73173.25
2023-03-03T03:32:14.629Z,73175.25
2023-03-03T03:32:47.048Z,73173.25
2023-03-03T03:33:19.566Z,73169.25
2023-03-03T03:33:54.764Z,73177.25
2023-03-03T03:34:27.556Z,73177.25
2023-03-03T03:35:01.392Z,73171.25
2023-03-03T03:35:36.630Z,73169.25
2023-03-03T03:36:09.653Z,73175.25
2023-03-03T03:36:43.193Z,73175.25
2023-03-03T03:37:19.353Z,73177.25
2023-03-03T03:37:52.355Z,73175.25
2023-03-03T03:38:27.276Z,73173.25
2023-03-03T03:39:02.916Z,73181.25
2023-03-03T03:39:36.065Z,73179.25
2023-03-03T03:40:10.002Z,73181.25
2023-03-03T03:40:44.970Z,73177.25
2023-03-03T03:41:17.301Z,73185.22
2023-03-03T03:41:49.549Z,73185.22
2023-03-03T03:42:26.989Z,73177.25
2023-03-03T03:42:59.325Z,73185.22
2023-03-03T03:43:31.585Z,73187.22
2023-03-03T03:44:07.392Z,73185.22
2023-03-03T03:44:39.682Z,73185.22
2023-03-03T03:45:15.330Z,73181.25
2023-03-03T03:45:52.355Z,73181.25
2023-03-03T03:46:25.176Z,73187.22
2023-03-03T03:46:57.658Z,73181.25
2023-03-03T03:47:33.068Z,73183.22
2023-03-03T03:48:06.308Z,73183.22
2023-03-03T03:48:38.871Z,73181.25
2023-03-03T03:49:15.863Z,73185.22
2023-03-03T03:49:48.198Z,73189.22
2023-03-03T03:50:20.487Z,73181.25
2023-03-03T03:50:55.465Z,73181.25
2023-03-03T03:51:31.326Z,73177.25
2023-03-03T03:52:04.726Z,73181.25
2023-03-03T03:52:41.527Z,73181.25
2023-03-03T03:53:14.004Z,73181.25
2023-03-03T03:53:48.857Z,73185.22
2023-03-03T03:54:21.280Z,73181.25
2023-03-03T03:54:54.733Z,73181.25
2023-03-03T03:55:27.093Z,73183.22
2023-03-03T03:56:02.088Z,73177.25
2023-03-03T03:56:35.401Z,73179.25
2023-03-03T03:57:08.512Z,73173.25
2023-03-03T03:57:46.577Z,73177.25
2023-03-03T03:58:19.540Z,73177.25
2023-03-03T03:58:58.336Z,73179.25
2023-03-03T03:59:33.220Z,73177.25
2023-03-03T04:00:07.428Z,73177.25
2023-03-03T04:00:47.177Z,73169.25
2023-03-03T04:01:22.337Z,73179.25
2023-03-03T04:01:55.430Z,73177.25
2023-03-03T04:02:29.049Z,73183.22
2023-03-03T04:03:04.155Z,73177.25
2023-03-03T04:03:36.835Z,73181.25
2023-03-03T04:04:13.932Z,73181.25
2023-03-03T04:04:48.814Z,73173.25
2023-03-03T04:05:21.131Z,73179.25
2023-03-03T04:05:53.850Z,73177.25
2023-03-03T04:06:26.370Z,73177.25
2023-03-03T04:07:01.440Z,73183.22
2023-03-03T04:07:33.959Z,73179.25
2023-03-03T04:08:07.447Z,73179.25
2023-03-03T04:08:42.366Z,73187.22
2023-03-03T04:09:15.364Z,73185.22
2023-03-03T04:09:48.260Z,73185.22
2023-03-03T04:10:23.469Z,73185.22
2023-03-03T04:10:55.722Z,73181.25
2023-03-03T04:11:28.951Z,73181.25
2023-03-03T04:12:03.875Z,73179.25
2023-03-03T04:12:38.753Z,73193.22
2023-03-03T04:13:17.222Z,73185.22
2023-03-03T04:13:53.256Z,73181.25
2023-03-03T04:14:25.674Z,73185.22
2023-03-03T04:14:59.054Z,73185.22
2023-03-03T04:15:34.072Z,73181.25
2023-03-03T04:16:07.484Z,73185.22
2023-03-03T04:16:40.821Z,73189.22
2023-03-03T04:17:19.707Z,73187.22
2023-03-03T04:17:52.074Z,73181.25
2023-03-03T04:18:24.354Z,73181.25
2023-03-03T04:18:59.510Z,73183.22
2023-03-03T04:19:32.074Z,73179.25
2023-03-03T04:20:05.074Z,73177.25
2023-03-03T04:20:40.193Z,73183.22
2023-03-03T04:21:14.381Z,73179.25
2023-03-03T04:21:46.830Z,73179.25
2023-03-03T04:22:21.677Z,73177.25
2023-03-03T04:22:54.561Z,73175.25
2023-03-03T04:23:26.981Z,73185.22
2023-03-03T04:24:02.162Z,73177.25
2023-03-03T04:24:35.822Z,73181.25
2023-03-03T04:25:11.544Z,73187.22
2023-03-03T04:25:49.785Z,73181.25
2023-03-03T04:26:22.180Z,73187.22
2023-03-03T04:26:57.466Z,73185.22
2023-03-03T04:27:29.775Z,73179.25
2023-03-03T04:28:03.953Z,73183.22
2023-03-03T04:28:43.118Z,73181.25
2023-03-03T04:29:16.037Z,73189.22
2023-03-03T04:29:49.693Z,73183.22
2023-03-03T04:30:24.622Z,73189.22
2023-03-03T04:30:59.901Z,73189.22
2023-03-03T04:31:33.804Z,73183.22
2023-03-03T04:32:09.659Z,73189.22
2023-03-03T04:32:43.154Z,73181.25
2023-03-03T04:33:18.578Z,73183.22
2023-03-03T04:33:54.300Z,73185.22
2023-03-03T04:34:28.052Z,73187.22
2023-03-03T04:35:07.659Z,73193.22
2023-03-03T04:35:42.383Z,73189.22
2023-03-03T04:36:17.359Z,73185.22
2023-03-03T04:36:49.741Z,73185.22
2023-03-03T04:37:22.090Z,73185.22
2023-03-03T04:37:57.170Z,73187.22
2023-03-03T04:38:30.304Z,73181.25
2023-03-03T04:39:02.610Z,73191.22
2023-03-03T04:39:38.100Z,73181.25
2023-03-03T04:40:11.682Z,73175.25
2023-03-03T04:40:45.645Z,73181.25
2023-03-03T04:41:21.267Z,73177.25
2023-03-03T04:41:53.579Z,73177.25
2023-03-03T04:42:28.230Z,73183.22
2023-03-03T04:43:04.281Z,73185.22
2023-03-03T04:43:39.434Z,73183.22
2023-03-03T04:44:11.867Z,73177.25
2023-03-03T04:44:46.927Z,73179.25
2023-03-03T04:45:19.695Z,73181.25
2023-03-03T04:45:52.479Z,73181.25
2023-03-03T04:46:27.368Z,73181.25
2023-03-03T04:46:59.656Z,73185.22
2023-03-03T04:47:32.648Z,73185.22
2023-03-03T04:48:08.609Z,73181.25
2023-03-03T04:48:41.555Z,73177.25
2023-03-03T04:49:14.803Z,73185.22
2023-03-03T04:49:51.134Z,73181.25
2023-03-03T04:50:23.427Z,73181.25
2023-03-03T04:50:55.952Z,73179.25
2023-03-03T04:51:30.840Z,73177.25
2023-03-03T04:52:03.972Z,73179.25
2023-03-03T04:52:36.678Z,73181.25
2023-03-03T04:53:12.818Z,73181.25
2023-03-03T04:53:46.875Z,73177.25
2023-03-03T04:54:19.465Z,73183.22
2023-03-03T04:54:54.339Z,73181.25
2023-03-03T04:55:26.648Z,73179.25
2023-03-03T04:55:58.907Z,73185.22
2023-03-03T04:56:34.336Z,73189.22
2023-03-03T04:57:07.998Z,73181.25
2023-03-03T04:57:40.332Z,73189.22
2023-03-03T04:58:13.257Z,73185.22
2023-03-03T04:58:51.036Z,73189.22
2023-03-03T04:59:23.276Z,73183.22
2023-03-03T04:59:55.584Z,73177.25
2023-03-03T05:00:30.461Z,73189.22
2023-03-03T05:01:02.804Z,73185.22
2023-03-03T05:01:37.016Z,73177.25
2023-03-03T05:02:13.157Z,73189.22
2023-03-03T05:02:45.508Z,73185.22
2023-03-03T05:03:19.688Z,73185.22
2023-03-03T05:03:54.618Z,73183.22
2023-03-03T05:04:27.494Z,73185.22
2023-03-03T05:04:59.801Z,73193.22
2023-03-03T05:05:34.658Z,73185.22
2023-03-03T05:06:07.638Z,73189.22
2023-03-03T05:06:41.016Z,73187.22
2023-03-03T05:07:15.915Z,73181.25
2023-03-03T05:07:48.153Z,73185.22
2023-03-03T05:08:20.503Z,73189.22
2023-03-03T05:08:55.330Z,73185.22
2023-03-03T05:09:27.763Z,73185.22
2023-03-03T05:09:59.980Z,73189.22
2023-03-03T05:10:35.228Z,73189.22
2023-03-03T05:11:07.556Z,73185.22
2023-03-03T05:11:39.799Z,73183.22
2023-03-03T05:12:14.697Z,73181.25
2023-03-03T05:12:47.040Z,73185.22
2023-03-03T05:13:19.441Z,73181.25
2023-03-03T05:13:56.890Z,73183.22
2023-03-03T05:14:29.198Z,73183.22
2023-03-03T05:15:01.643Z,73183.22
2023-03-03T05:15:36.526Z,73177.25
2023-03-03T05:16:09.159Z,73185.22
2023-03-03T05:16:41.553Z,73181.25
2023-03-03T05:17:16.424Z,73181.25
2023-03-03T05:17:48.657Z,73189.22
2023-03-03T05:18:21.063Z,73189.22
2023-03-03T05:18:55.953Z,73183.22
2023-03-03T05:19:28.421Z,73181.25
2023-03-03T05:20:00.686Z,73185.22
2023-03-03T05:20:35.522Z,73185.22
2023-03-03T05:21:08.193Z,73189.22
2023-03-03T05:21:42.734Z,73185.22
2023-03-03T05:22:18.365Z,73181.25
2023-03-03T05:22:50.649Z,73185.22
2023-03-03T05:23:23.545Z,73193.22
2023-03-03T05:23:55.785Z,73189.22
2023-03-03T05:24:30.720Z,73191.22
2023-03-03T05:25:02.983Z,73185.22
2023-03-03T05:25:35.231Z,73189.22
2023-03-03T05:26:10.089Z,73185.22
2023-03-03T05:26:42.440Z,73189.22
2023-03-03T05:27:14.712Z,73185.22
2023-03-03T05:27:49.640Z,73189.22
2023-03-03T05:28:21.888Z,73189.22
2023-03-03T05:28:56.743Z,73189.22
2023-03-03T05:29:31.717Z,73185.22
2023-03-03T05:30:04.636Z,73185.22
2023-03-03T05:30:37.361Z,73185.22
2023-03-03T05:31:12.411Z,73189.22
2023-03-03T05:31:45.726Z,73187.22
2023-03-03T05:32:18.221Z,73189.22
2023-03-03T05:32:53.097Z,73193.22
2023-03-03T05:33:25.491Z,73189.22
2023-03-03T05:34:00.337Z,73189.22
2023-03-03T05:34:32.654Z,73189.22
2023-03-03T05:35:05.750Z,73185.22
2023-03-03T05:35:40.637Z,73193.22
2023-03-03T05:36:12.889Z,73193.22
2023-03-03T05:36:45.194Z,73197.22
2023-03-03T05:37:20.151Z,73193.22
2023-03-03T05:37:52.902Z,73193.22
2023-03-03T05:38:25.915Z,73201.19
2023-03-03T05:39:00.808Z,73193.22
2023-03-03T05:39:33.113Z,73197.22
2023-03-03T05:40:06.839Z,73199.22
2023-03-03T05:40:39.222Z,73197.22
2023-03-03T05:41:14.124Z,73201.19
2023-03-03T05:41:46.402Z,73197.22
2023-03-03T05:42:18.683Z,73195.22
2023-03-03T05:42:53.759Z,73201.19
2023-03-03T05:43:26.299Z,73199.22
2023-03-03T05:44:01.167Z,73197.22
2023-03-03T05:44:36.003Z,73205.19
2023-03-03T05:45:09.451Z,73203.19
2023-03-03T05:45:41.726Z,73197.22
2023-03-03T05:46:16.691Z,73201.19
2023-03-03T05:46:49.124Z,73199.22
2023-03-03T05:47:21.412Z,73201.19
2023-03-03T05:47:56.788Z,73213.19
2023-03-03T05:48:29.088Z,73213.19
2023-03-03T05:49:01.393Z,73205.19
2023-03-03T05:49:36.418Z,73205.19
2023-03-03T05:50:10.300Z,73213.19
2023-03-03T05:50:42.618Z,73217.16
2023-03-03T05:51:17.541Z,73213.19
2023-03-03T05:51:49.796Z,73209.19
2023-03-03T05:52:22.522Z,73213.19
2023-03-03T05:52:57.359Z,73215.19
2023-03-03T05:53:30.297Z,73213.19
2023-03-03T05:54:02.701Z,73215.19
2023-03-03T05:54:37.941Z,73217.16
2023-03-03T05:55:11.372Z,73221.16
2023-03-03T05:55:43.623Z,73215.19
2023-03-03T05:56:18.464Z,73221.16
2023-03-03T05:56:50.720Z,73221.16
2023-03-03T05:57:23.345Z,73229.16
2023-03-03T05:57:58.298Z,73221.16
2023-03-03T05:58:30.613Z,73215.19
2023-03-03T05:59:05.469Z,73221.16
2023-03-03T05:59:40.569Z,73229.16
2023-03-03T06:00:14.341Z,73221.16
2023-03-03T06:00:49.203Z,73217.16
2023-03-03T06:01:22.271Z,73221.16
2023-03-03T06:01:54.586Z,73219.16
2023-03-03T06:02:29.475Z,73221.16
2023-03-03T06:03:01.920Z,73221.16
2023-03-03T06:03:34.320Z,73217.16
2023-03-03T06:04:06.712Z,73221.16
2023-03-03T06:04:41.590Z,73219.16
2023-03-03T06:05:13.822Z,73227.16
2023-03-03T06:05:46.048Z,73225.16
2023-03-03T06:06:19.374Z,73225.16
2023-03-03T06:06:54.212Z,73221.16
2023-03-03T06:07:26.454Z,73219.16
2023-03-03T06:07:58.728Z,73225.16
2023-03-03T06:08:33.590Z,73229.16
2023-03-03T06:09:06.454Z,73227.16
2023-03-03T06:09:38.947Z,73229.16
2023-03-03T06:10:14.407Z,73235.13
2023-03-03T06:10:51.588Z,73225.16
2023-03-03T06:11:23.964Z,73231.16
2023-03-03T06:11:58.808Z,73233.13
2023-03-03T06:12:31.128Z,73237.13
2023-03-03T06:13:03.368Z,73229.16
2023-03-03T06:13:38.211Z,73237.13
2023-03-03T06:14:13.042Z,73229.16
2023-03-03T06:14:45.295Z,73231.16
2023-03-03T06:15:20.395Z,73231.16
2023-03-03T06:15:53.641Z,73233.13
2023-03-03T06:16:26.021Z,73237.13
2023-03-03T06:17:00.952Z,73233.13
2023-03-03T06:17:33.213Z,73233.13
2023-03-03T06:18:05.643Z,73241.13
2023-03-03T06:18:40.786Z,73237.13
2023-03-03T06:19:13.046Z,73237.13
2023-03-03T06:19:45.305Z,73239.13
2023-03-03T06:20:20.325Z,73233.13
2023-03-03T06:20:53.104Z,73235.13
2023-03-03T06:21:25.467Z,73241.13
2023-03-03T06:22:00.884Z,73239.13
2023-03-03T06:22:33.276Z,73235.13
2023-03-03T06:23:05.899Z,73233.13
2023-03-03T06:23:40.790Z,73229.16
2023-03-03T06:24:13.105Z,73237.13
2023-03-03T06:24:45.424Z,73233.13
2023-03-03T06:25:20.633Z,73233.13
2023-03-03T06:25:53.411Z,73235.13
2023-03-03T06:26:25.754Z,73237.13
2023-03-03T06:27:00.608Z,73237.13
2023-03-03T06:27:32.845Z,73241.13
2023-03-03T06:28:05.234Z,73227.16
2023-03-03T06:28:40.106Z,73227.16
2023-03-03T06:29:15.876Z,73227.16
2023-03-03T06:29:48.163Z,73235.13
2023-03-03T06:30:23.177Z,73233.13
2023-03-03T06:30:55.906Z,73241.13
2023-03-03T06:31:28.504Z,73235.13
2023-03-03T06:32:03.479Z,73237.13
2023-03-03T06:32:35.910Z,73233.13
2023-03-03T06:33:08.201Z,73237.13
2023-03-03T06:33:43.537Z,73237.13
2023-03-03T06:34:15.893Z,73233.13
2023-03-03T06:34:48.158Z,73233.13
2023-03-03T06:35:23.259Z,73237.13
2023-03-03T06:35:55.674Z,73231.16
2023-03-03T06:36:30.562Z,73237.13
2023-03-03T06:37:02.832Z,73237.13
2023-03-03T06:37:35.067Z,73237.13
2023-03-03T06:38:09.929Z,73237.13
2023-03-03T06:38:42.177Z,73239.13
2023-03-03T06:39:14.439Z,73231.16
2023-03-03T06:39:49.298Z,73237.13
2023-03-03T06:40:21.604Z,73237.13
2023-03-03T06:40:53.847Z,73245.13
2023-03-03T06:41:28.689Z,73245.13
2023-03-03T06:42:01.000Z,73237.13
2023-03-03T06:42:33.254Z,73237.13
2023-03-03T06:43:08.125Z,73237.13
2023-03-03T06:43:40.405Z,73249.09
2023-03-03T06:44:15.267Z,73239.13
2023-03-03T06:44:50.148Z,73245.13
2023-03-03T06:45:22.448Z,73237.13
2023-03-03T06:45:54.702Z,73237.13
2023-03-03T06:46:29.768Z,73241.13
2023-03-03T06:47:02.177Z,73243.13